Главная страница
METAR-TAF:

METAR-TAF

Аэропорты :

Уайт-Плейнс, Нью-Йорк, США

широта: 41-04-01N, долгота: 073-42-27W, высота над уровнем моря: 134 м

Текущие метеонаблюдения

Эта сводка был подготовлена 50 минут назад, в 13:56 UTC
Ветер 3 Узел переменных направлений
Температура 3°C
Влажность 52%
Давление 1023 hPa
Видимость: 16.1 км
ясное небо

METAR: KHPN 151356Z VRB03KT 10SM CLR 03/M06 A3021 RMK AO2 SLP237 T00331061

Время: 09:46 (14:46 UTC)

Прогноз

Эта сводка был подготовлена 1 час и 15 минут назад, в 13:31 UTC
Прогноз действительный с 15-го 14 UTC до 16-го 12 UTC
Ветер 8 Узел от западный
Видимость: 10 км
ясное небо
С 16-го 0000 UTC
Ветер 9 Узел от северо-западный
Видимость: 10 км
ясное небо
С 16-го 0600 UTC
Ветер 14 Узел от северный с порывами до 23 Узел
Видимость: 10 км
ясное небо

TAF: KHPN 151331Z 1514/1612 28008KT P6SM SKC FM160000 32009KT P6SM SKC FM160600 35014G23KT P6SM SKC AMD NOT SKED

Метеонаблюдения и прогнозы для более 4000 аэропортов (сводки METAR и TAF).

Имеющиеся станции представлены на карте желтыми и красными точками.

Чтобы увидеть название станции, наведите на нее мышь.

Затем щелкните, чтобы увидеть метеонаблюдения и метеопрогнозы.

Управление картой: чтобы увеличить масштаб, щелкните зеленые кнопки с черным крестиком; чтобы уменьшить масштаб, щелкните зеленую кнопку с тире; для просмотра соседних карт щелкайте зеленые стрелки.


METAR-TAF: